Huvudsida
METAR-TAF:

METAR-TAF

Flygplatser :

Yap International Airport

Yap, Mikronesien

latitud: 09-29N, longitud: 138-05E, höjd: 28 m

Aktuellt väderrapport

Denna rapport gjordes för 40 minuter sedan, klockan 20:50 UTC
Vind 10 kt från nord/nordost
Temperatur 27°C
Fuktighet 74%
Tryck 1013 hPa
Sikt: 19.3 km
Få moln på en höjd av 1600 ft
Brutna moln på en höjd av 13000 ft
Brutna moln på en höjd av 30000 ft

METAR: PTYA 192050Z 03010KT 12SM FEW016 BKN130 BKN300 27/22 A2991 RMK SLP130 8/171 T02670220 53014

Tid: 07:30 (21:30 UTC)

Väderprognos

Denna rapport gjordes för 4 timmar och 9 minuter sedan, klockan 17:21 UTC
Prognos gäller från 19 kl. 18 UTC till 20 kl. 18 UTC
Vind 11 kt från nord/nordost
Sikt: 10 km
Få moln på en höjd av 1600 ft
Få moln på en höjd av 5000 ft

TAF: PTYA 191721Z 1918/2018 03011KT P6SM FEW016 FEW050

Aktuella väderrapporter och prognoser från 4000 flygplatser (METAR- och TAF-rapporter).

De tillgängliga stationerna syns som gula och röda prickar på kartan.

För musen över prickarna för att se namnen på stationerna.

Klicka sedan för att få väderrapporter och prognoser.

För att ändra kartan: Klicka på de gröna knapparna med ett svart kors på för att zooma in; den gröna knappen med ett streck på för att zooma ut; eller på de gröna pilarna för angränsande kartor.


METAR-TAF: